TimeCST,TemperatureF,Dew PointF,Humidity,Sea Level PressureIn,VisibilityMPH,Wind Direction,Wind SpeedMPH,Gust SpeedMPH,PrecipitationIn,Events,Conditions,WindDirDegrees,DateUTC
12:15 AM,32.0,24.8,75,29.86,10.0,WNW,3.5,-,N/A,,Overcast,300,2012-12-09 06:15:00
12:35 AM,33.8,26.6,75,29.86,10.0,NW,6.9,-,N/A,,Overcast,320,2012-12-09 06:35:00
12:55 AM,33.8,26.6,75,29.85,10.0,NW,6.9,-,N/A,,Mostly Cloudy,310,2012-12-09 06:55:00
1:15 AM,33.8,26.6,75,29.85,10.0,WNW,6.9,-,N/A,,Overcast,300,2012-12-09 07:15:00
1:35 AM,33.8,26.6,75,29.86,10.0,WNW,10.4,-,N/A,,Mostly Cloudy,300,2012-12-09 07:35:00
1:55 AM,33.8,26.6,75,29.86,10.0,WNW,9.2,-,N/A,,Scattered Clouds,290,2012-12-09 07:55:00
2:15 AM,33.8,26.6,75,29.85,10.0,WNW,5.8,-,N/A,,Mostly Cloudy,290,2012-12-09 08:15:00
2:35 AM,32.0,24.8,75,29.86,10.0,WNW,6.9,-,N/A,,Overcast,290,2012-12-09 08:35:00
2:55 AM,35.6,24.8,65,29.86,10.0,NW,10.4,-,N/A,,Overcast,320,2012-12-09 08:55:00
3:15 AM,37.4,23.0,56,29.86,10.0,NNW,17.3,-,N/A,,Overcast,330,2012-12-09 09:15:00
3:35 AM,39.2,21.2,49,29.87,10.0,NNW,13.8,-,N/A,,Overcast,330,2012-12-09 09:35:00
3:55 AM,39.2,21.2,49,29.88,10.0,NNW,17.3,23.0,N/A,,Overcast,330,2012-12-09 09:55:00
4:15 AM,39.2,21.2,49,29.89,10.0,NNW,16.1,-,N/A,,Overcast,330,2012-12-09 10:15:00
4:35 AM,39.2,21.2,49,29.90,10.0,NNW,18.4,25.3,N/A,,Overcast,330,2012-12-09 10:35:00
4:55 AM,37.4,21.2,52,29.90,10.0,NNW,20.7,24.2,N/A,,Overcast,330,2012-12-09 10:55:00
5:15 AM,37.4,19.4,48,29.91,10.0,NNW,18.4,25.3,N/A,,Overcast,330,2012-12-09 11:15:00
5:35 AM,37.4,19.4,48,29.92,10.0,NW,15.0,-,N/A,,Overcast,320,2012-12-09 11:35:00
5:55 AM,37.4,19.4,48,29.93,10.0,NNW,20.7,26.5,N/A,,Overcast,330,2012-12-09 11:55:00
6:15 AM,35.6,17.6,48,29.93,10.0,NNW,21.9,28.8,N/A,,Overcast,330,2012-12-09 12:15:00
6:35 AM,35.6,17.6,48,29.94,10.0,NNW,24.2,29.9,N/A,,Overcast,330,2012-12-09 12:35:00
6:55 AM,33.8,15.8,48,29.96,10.0,NNW,21.9,31.1,N/A,,Overcast,330,2012-12-09 12:55:00
7:15 AM,32.0,12.2,44,29.97,10.0,NNW,18.4,29.9,N/A,,Overcast,330,2012-12-09 13:15:00
7:35 AM,30.2,12.2,47,29.98,10.0,NNW,24.2,29.9,N/A,,Overcast,330,2012-12-09 13:35:00
7:55 AM,30.2,10.4,44,30.01,7.0,NNW,23.0,33.4,N/A,,Overcast,340,2012-12-09 13:55:00
8:15 AM,28.4,10.4,47,30.00,9.0,NNW,26.5,33.4,N/A,,Overcast,330,2012-12-09 14:15:00
8:35 AM,28.4,8.6,43,30.01,10.0,NNW,20.7,33.4,N/A,,Overcast,340,2012-12-09 14:35:00
8:55 AM,28.4,8.6,43,30.02,6.0,NNW,29.9,35.7,N/A,,Overcast,330,2012-12-09 14:55:00
9:15 AM,26.6,6.8,43,30.03,7.0,NNW,24.2,36.8,N/A,,Overcast,330,2012-12-09 15:15:00
9:35 AM,26.6,6.8,43,30.05,10.0,NNW,25.3,32.2,N/A,,Overcast,340,2012-12-09 15:35:00
9:55 AM,24.8,6.8,46,30.05,4.0,NNW,25.3,35.7,N/A,,Overcast,340,2012-12-09 15:55:00
10:35 AM,24.8,6.8,46,30.07,9.0,NNW,28.8,34.5,N/A,,Overcast,330,2012-12-09 16:35:00
10:55 AM,24.8,3.2,40,30.08,5.0,NNW,32.2,41.4,N/A,,Overcast,330,2012-12-09 16:55:00
11:15 AM,24.8,3.2,40,30.09,8.0,NNW,29.9,35.7,N/A,,Overcast,330,2012-12-09 17:15:00
11:35 AM,24.8,3.2,40,30.08,10.0,NNW,28.8,36.8,N/A,,Overcast,330,2012-12-09 17:35:00
11:55 AM,24.8,3.2,40,30.08,10.0,NW,21.9,33.4,N/A,,Overcast,320,2012-12-09 17:55:00
12:15 PM,24.8,3.2,40,30.09,10.0,NNW,20.7,28.8,N/A,,Overcast,330,2012-12-09 18:15:00
12:35 PM,24.8,3.2,40,30.09,10.0,NNW,24.2,29.9,N/A,,Overcast,330,2012-12-09 18:35:00
12:55 PM,24.8,3.2,40,30.08,10.0,NNW,25.3,28.8,N/A,,Mostly Cloudy,330,2012-12-09 18:55:00
1:15 PM,24.8,3.2,40,30.09,10.0,NNW,19.6,25.3,N/A,,Mostly Cloudy,330,2012-12-09 19:15:00
1:35 PM,26.6,3.2,37,30.08,10.0,NNW,20.7,26.5,N/A,,Scattered Clouds,340,2012-12-09 19:35:00
1:55 PM,26.6,3.2,37,30.08,10.0,NNW,23.0,27.6,N/A,,Clear,330,2012-12-09 19:55:00
2:15 PM,26.6,3.2,37,30.09,10.0,NNW,19.6,27.6,N/A,,Clear,340,2012-12-09 20:15:00
2:35 PM,26.6,1.4,34,30.09,10.0,NNW,19.6,-,N/A,,Partly Cloudy,340,2012-12-09 20:35:00
2:55 PM,26.6,3.2,37,30.09,10.0,NW,18.4,27.6,N/A,,Clear,320,2012-12-09 20:55:00
3:15 PM,26.6,3.2,37,30.10,10.0,NW,24.2,28.8,N/A,,Mostly Cloudy,320,2012-12-09 21:15:00
3:35 PM,26.6,3.2,37,30.10,10.0,NNW,21.9,-,N/A,,Partly Cloudy,330,2012-12-09 21:35:00
3:55 PM,26.6,3.2,37,30.10,10.0,NNW,16.1,-,N/A,,Clear,330,2012-12-09 21:55:00
4:15 PM,26.6,3.2,37,30.11,10.0,NNW,25.3,-,N/A,,Clear,330,2012-12-09 22:15:00
4:35 PM,26.6,3.2,37,30.12,10.0,NNW,19.6,-,N/A,,Clear,340,2012-12-09 22:35:00
4:55 PM,26.6,3.2,37,30.12,10.0,NNW,15.0,-,N/A,,Clear,340,2012-12-09 22:55:00
5:15 PM,24.8,3.2,40,30.13,10.0,NNW,18.4,24.2,N/A,,Clear,330,2012-12-09 23:15:00
5:35 PM,24.8,3.2,40,30.13,10.0,NNW,18.4,25.3,N/A,,Clear,340,2012-12-09 23:35:00
5:55 PM,24.8,3.2,40,30.14,10.0,NNW,23.0,31.1,N/A,,Clear,340,2012-12-09 23:55:00
6:15 PM,23.0,3.2,43,30.15,10.0,NNW,21.9,27.6,N/A,,Clear,340,2012-12-10 00:15:00
6:35 PM,21.2,3.2,46,30.16,10.0,NNW,19.6,27.6,N/A,,Clear,340,2012-12-10 00:35:00
6:55 PM,21.2,3.2,46,30.17,10.0,NNW,19.6,25.3,N/A,,Clear,340,2012-12-10 00:55:00
7:15 PM,19.4,3.2,49,30.18,10.0,NNW,19.6,-,N/A,,Clear,340,2012-12-10 01:15:00
7:35 PM,21.2,3.2,46,30.18,10.0,NNW,18.4,25.3,N/A,,Mostly Cloudy,340,2012-12-10 01:35:00
7:55 PM,21.2,3.2,46,30.20,10.0,NNW,23.0,32.2,N/A,,Overcast,340,2012-12-10 01:55:00
8:15 PM,21.2,3.2,46,30.20,10.0,NNW,25.3,29.9,N/A,,Overcast,340,2012-12-10 02:15:00
8:35 PM,19.4,3.2,49,30.22,10.0,NNW,23.0,26.5,N/A,,Overcast,340,2012-12-10 02:35:00
8:55 PM,19.4,1.4,46,30.23,10.0,NNW,18.4,29.9,N/A,,Overcast,340,2012-12-10 02:55:00
9:15 PM,19.4,1.4,46,30.22,10.0,NNW,26.5,31.1,N/A,,Scattered Clouds,330,2012-12-10 03:15:00
9:35 PM,17.6,1.4,49,30.22,10.0,NNW,21.9,29.9,N/A,,Clear,340,2012-12-10 03:35:00
9:55 PM,17.6,-0.4,45,30.21,10.0,NNW,20.7,-,N/A,,Clear,340,2012-12-10 03:55:00
10:15 PM,15.8,-0.4,49,30.21,10.0,NNW,17.3,-,N/A,,Clear,340,2012-12-10 04:15:00
10:35 PM,15.8,-0.4,49,30.22,10.0,NNW,15.0,21.9,N/A,,Clear,330,2012-12-10 04:35:00
10:55 PM,15.8,-2.2,45,30.22,10.0,NNW,16.1,23.0,N/A,,Clear,330,2012-12-10 04:55:00
11:15 PM,15.8,-2.2,45,30.21,10.0,NNW,13.8,24.2,N/A,,Clear,330,2012-12-10 05:15:00
11:35 PM,14.0,-2.2,49,30.20,10.0,NNW,17.3,21.9,N/A,,Clear,330,2012-12-10 05:35:00
11:55 PM,14.0,-2.2,49,30.20,10.0,NW,20.7,27.6,N/A,,Clear,320,2012-12-10 05:55:00